sensor_id;sensor_type;location;lat;lon;timestamp;pressure;altitude;pressure_sealevel;temperature;humidity
46690;BME280;32423;45.398;10.874;2023-04-26T00:01:04;100372.59;;;15.84;55.75
46690;BME280;32423;45.398;10.874;2023-04-26T00:03:56;100383.28;;;15.89;55.21
46690;BME280;32423;45.398;10.874;2023-04-26T00:06:45;100372.75;;;15.91;54.41
46690;BME280;32423;45.398;10.874;2023-04-26T00:09:37;100373.47;;;15.88;56.09
46690;BME280;32423;45.398;10.874;2023-04-26T00:12:29;100378.78;;;15.81;58.26
46690;BME280;32423;45.398;10.874;2023-04-26T00:15:19;100384.44;;;15.88;53.35
46690;BME280;32423;45.398;10.874;2023-04-26T00:18:11;100377.09;;;15.92;52.74
46690;BME280;32423;45.398;10.874;2023-04-26T00:21:03;100381.63;;;15.85;54.36
46690;BME280;32423;45.398;10.874;2023-04-26T00:23:55;100378.66;;;15.74;57.44
46690;BME280;32423;45.398;10.874;2023-04-26T00:26:47;100373.44;;;15.69;59.50
46690;BME280;32423;45.398;10.874;2023-04-26T00:29:36;100380.50;;;15.70;60.44
46690;BME280;32423;45.398;10.874;2023-04-26T00:32:28;100374.66;;;15.71;61.26
46690;BME280;32423;45.398;10.874;2023-04-26T00:35:18;100382.19;;;15.74;62.38
46690;BME280;32423;45.398;10.874;2023-04-26T00:38:10;100374.38;;;15.76;63.27
46690;BME280;32423;45.398;10.874;2023-04-26T00:41:02;100375.19;;;15.77;63.02
46690;BME280;32423;45.398;10.874;2023-04-26T00:43:54;100375.19;;;15.77;62.08
46690;BME280;32423;45.398;10.874;2023-04-26T00:46:46;100377.13;;;15.76;60.40
46690;BME280;32423;45.398;10.874;2023-04-26T00:49:38;100375.97;;;15.77;61.95
46690;BME280;32423;45.398;10.874;2023-04-26T00:52:30;100390.22;;;15.83;55.62
46690;BME280;32423;45.398;10.874;2023-04-26T00:55:22;100387.81;;;15.81;54.05
46690;BME280;32423;45.398;10.874;2023-04-26T00:58:15;100387.28;;;15.76;53.29
46690;BME280;32423;45.398;10.874;2023-04-26T01:01:07;100389.41;;;15.82;51.41
46690;BME280;32423;45.398;10.874;2023-04-26T01:03:59;100386.88;;;15.74;54.55
46690;BME280;32423;45.398;10.874;2023-04-26T01:06:51;100383.50;;;15.65;57.51
46690;BME280;32423;45.398;10.874;2023-04-26T01:09:43;100376.03;;;15.62;58.92
46690;BME280;32423;45.398;10.874;2023-04-26T01:12:32;100391.03;;;15.68;54.03
46690;BME280;32423;45.398;10.874;2023-04-26T01:15:24;100399.28;;;15.68;53.84
46690;BME280;32423;45.398;10.874;2023-04-26T01:18:16;100399.97;;;15.65;53.35
46690;BME280;32423;45.398;10.874;2023-04-26T01:21:08;100408.91;;;15.62;54.48
46690;BME280;32423;45.398;10.874;2023-04-26T01:23:57;100418.56;;;15.56;54.32
46690;BME280;32423;45.398;10.874;2023-04-26T01:26:50;100414.94;;;15.52;54.49
46690;BME280;32423;45.398;10.874;2023-04-26T01:29:40;100414.47;;;15.50;56.22
46690;BME280;32423;45.398;10.874;2023-04-26T01:32:32;100414.47;;;15.50;56.11
46690;BME280;32423;45.398;10.874;2023-04-26T01:35:23;100416.31;;;15.46;58.36
46690;BME280;32423;45.398;10.874;2023-04-26T01:38:16;100422.06;;;15.40;58.47
46690;BME280;32423;45.398;10.874;2023-04-26T01:41:08;100431.53;;;15.43;58.04
46690;BME280;32423;45.398;10.874;2023-04-26T01:43:59;100424.13;;;15.44;58.51
46690;BME280;32423;45.398;10.874;2023-04-26T01:46:51;100428.00;;;15.43;58.86
46690;BME280;32423;45.398;10.874;2023-04-26T01:49:44;100432.97;;;15.37;57.91
46690;BME280;32423;45.398;10.874;2023-04-26T01:52:33;100428.16;;;15.34;57.28
46690;BME280;32423;45.398;10.874;2023-04-26T01:55:25;100436.38;;;15.34;56.82
46690;BME280;32423;45.398;10.874;2023-04-26T01:58:17;100441.09;;;15.33;56.65
46690;BME280;32423;45.398;10.874;2023-04-26T02:01:09;100443.84;;;15.33;55.26
46690;BME280;32423;45.398;10.874;2023-04-26T02:04:01;100437.19;;;15.34;54.09
46690;BME280;32423;45.398;10.874;2023-04-26T02:06:53;100438.78;;;15.35;54.16
46690;BME280;32423;45.398;10.874;2023-04-26T02:09:42;100435.34;;;15.38;52.96
46690;BME280;32423;45.398;10.874;2023-04-26T02:12:35;100433.66;;;15.34;53.58
46690;BME280;32423;45.398;10.874;2023-04-26T02:15:27;100432.75;;;15.30;53.50
46690;BME280;32423;45.398;10.874;2023-04-26T02:18:19;100435.78;;;15.25;55.67
46690;BME280;32423;45.398;10.874;2023-04-26T02:21:11;100433.41;;;15.23;54.71
46690;BME280;32423;45.398;10.874;2023-04-26T02:24:03;100447.00;;;15.20;55.23
46690;BME280;32423;45.398;10.874;2023-04-26T02:26:55;100437.72;;;15.24;52.11
46690;BME280;32423;45.398;10.874;2023-04-26T02:29:48;100440.28;;;15.17;55.66
46690;BME280;32423;45.398;10.874;2023-04-26T02:32:40;100440.63;;;15.16;53.62
46690;BME280;32423;45.398;10.874;2023-04-26T02:35:32;100439.75;;;15.12;57.11
46690;BME280;32423;45.398;10.874;2023-04-26T02:38:24;100444.69;;;15.06;59.38
46690;BME280;32423;45.398;10.874;2023-04-26T02:41:19;100437.63;;;15.05;60.75
46690;BME280;32423;45.398;10.874;2023-04-26T02:44:11;100444.94;;;15.01;60.62
46690;BME280;32423;45.398;10.874;2023-04-26T02:47:03;100441.06;;;15.02;59.27
46690;BME280;32423;45.398;10.874;2023-04-26T02:49:54;100452.44;;;15.04;57.93
46690;BME280;32423;45.398;10.874;2023-04-26T02:52:46;100461.84;;;15.03;56.76
46690;BME280;32423;45.398;10.874;2023-04-26T02:55:38;100453.63;;;15.03;54.90
46690;BME280;32423;45.398;10.874;2023-04-26T02:58:30;100465.00;;;15.05;53.45
46690;BME280;32423;45.398;10.874;2023-04-26T03:01:22;100455.69;;;14.94;54.38
46690;BME280;32423;45.398;10.874;2023-04-26T03:04:14;100459.63;;;14.93;55.51
46690;BME280;32423;45.398;10.874;2023-04-26T03:07:06;100456.50;;;14.94;53.79
46690;BME280;32423;45.398;10.874;2023-04-26T03:09:58;100463.91;;;14.94;53.33
46690;BME280;32423;45.398;10.874;2023-04-26T03:12:50;100457.81;;;14.85;53.76
46690;BME280;32423;45.398;10.874;2023-04-26T03:15:42;100468.13;;;14.76;55.46
46690;BME280;32423;45.398;10.874;2023-04-26T03:18:34;100467.88;;;14.81;55.10
46690;BME280;32423;45.398;10.874;2023-04-26T03:21:26;100481.09;;;14.79;55.13
46690;BME280;32423;45.398;10.874;2023-04-26T03:24:19;100481.72;;;14.72;57.67
46690;BME280;32423;45.398;10.874;2023-04-26T03:27:11;100477.81;;;14.73;56.50
46690;BME280;32423;45.398;10.874;2023-04-26T03:30:03;100475.88;;;14.74;57.59
46690;BME280;32423;45.398;10.874;2023-04-26T03:32:55;100473.84;;;14.71;59.74
46690;BME280;32423;45.398;10.874;2023-04-26T03:35:47;100486.72;;;14.70;60.37
46690;BME280;32423;45.398;10.874;2023-04-26T03:38:39;100486.25;;;14.52;60.89
46690;BME280;32423;45.398;10.874;2023-04-26T03:41:32;100492.72;;;14.48;60.35
46690;BME280;32423;45.398;10.874;2023-04-26T03:44:24;100486.00;;;14.58;61.80
46690;BME280;32423;45.398;10.874;2023-04-26T03:47:16;100495.53;;;14.64;61.55
46690;BME280;32423;45.398;10.874;2023-04-26T03:50:09;100497.84;;;14.62;60.97
46690;BME280;32423;45.398;10.874;2023-04-26T03:53:01;100497.22;;;14.68;59.55
46690;BME280;32423;45.398;10.874;2023-04-26T03:55:53;100499.28;;;14.71;54.75
46690;BME280;32423;45.398;10.874;2023-04-26T03:58:45;100513.31;;;14.70;56.30
46690;BME280;32423;45.398;10.874;2023-04-26T04:01:37;100509.69;;;14.66;59.79
46690;BME280;32423;45.398;10.874;2023-04-26T04:04:29;100510.13;;;14.68;56.12
46690;BME280;32423;45.398;10.874;2023-04-26T04:07:21;100508.97;;;14.69;54.82
46690;BME280;32423;45.398;10.874;2023-04-26T04:10:13;100518.69;;;14.66;54.98
46690;BME280;32423;45.398;10.874;2023-04-26T04:13:05;100514.00;;;14.67;53.52
46690;BME280;32423;45.398;10.874;2023-04-26T04:15:57;100513.13;;;14.63;54.65
46690;BME280;32423;45.398;10.874;2023-04-26T04:18:49;100520.78;;;14.57;59.93
46690;BME280;32423;45.398;10.874;2023-04-26T04:21:41;100525.06;;;14.58;63.76
46690;BME280;32423;45.398;10.874;2023-04-26T04:24:33;100531.97;;;14.52;63.06
46690;BME280;32423;45.398;10.874;2023-04-26T04:27:26;100536.72;;;14.55;60.98
46690;BME280;32423;45.398;10.874;2023-04-26T04:30:18;100534.78;;;14.55;55.93
46690;BME280;32423;45.398;10.874;2023-04-26T04:33:10;100538.47;;;14.47;56.86
46690;BME280;32423;45.398;10.874;2023-04-26T04:36:02;100540.75;;;14.45;57.87
46690;BME280;32423;45.398;10.874;2023-04-26T04:38:54;100541.22;;;14.47;61.86
46690;BME280;32423;45.398;10.874;2023-04-26T04:41:46;100546.31;;;14.49;65.34
46690;BME280;32423;45.398;10.874;2023-04-26T04:44:38;100545.41;;;14.45;65.29
46690;BME280;32423;45.398;10.874;2023-04-26T04:47:27;100547.13;;;14.49;56.10
46690;BME280;32423;45.398;10.874;2023-04-26T04:50:19;100555.22;;;14.46;60.98
46690;BME280;32423;45.398;10.874;2023-04-26T04:53:12;100550.66;;;14.50;63.34
46690;BME280;32423;45.398;10.874;2023-04-26T04:56:03;100558.06;;;14.49;66.59
46690;BME280;32423;45.398;10.874;2023-04-26T04:58:54;100563.19;;;14.51;68.44
46690;BME280;32423;45.398;10.874;2023-04-26T05:01:46;100569.34;;;14.48;69.09
46690;BME280;32423;45.398;10.874;2023-04-26T05:04:39;100562.63;;;14.45;68.70
46690;BME280;32423;45.398;10.874;2023-04-26T05:07:31;100569.91;;;14.53;69.96
46690;BME280;32423;45.398;10.874;2023-04-26T05:10:23;100567.88;;;14.50;63.71
46690;BME280;32423;45.398;10.874;2023-04-26T05:13:13;100565.78;;;14.60;56.86
46690;BME280;32423;45.398;10.874;2023-04-26T05:16:05;100576.31;;;14.58;55.83
46690;BME280;32423;45.398;10.874;2023-04-26T05:18:58;100576.63;;;14.56;54.86
46690;BME280;32423;45.398;10.874;2023-04-26T05:21:49;100588.81;;;14.59;54.57
46690;BME280;32423;45.398;10.874;2023-04-26T05:24:41;100585.44;;;14.49;60.24
46690;BME280;32423;45.398;10.874;2023-04-26T05:27:33;100598.66;;;14.47;59.85
46690;BME280;32423;45.398;10.874;2023-04-26T05:30:55;100586.91;;;14.47;57.32
46690;BME280;32423;45.398;10.874;2023-04-26T05:33:49;100590.78;;;14.46;60.13
46690;BME280;32423;45.398;10.874;2023-04-26T05:36:48;100602.06;;;14.44;62.38
46690;BME280;32423;45.398;10.874;2023-04-26T05:39:40;100607.22;;;14.46;61.94
46690;BME280;32423;45.398;10.874;2023-04-26T05:42:32;100609.63;;;14.47;64.58
46690;BME280;32423;45.398;10.874;2023-04-26T05:45:26;100614.38;;;14.50;63.47
46690;BME280;32423;45.398;10.874;2023-04-26T05:48:19;100609.25;;;14.49;62.58
46690;BME280;32423;45.398;10.874;2023-04-26T05:51:11;100613.91;;;14.48;63.26
46690;BME280;32423;45.398;10.874;2023-04-26T05:54:02;100607.31;;;14.49;65.07
46690;BME280;32423;45.398;10.874;2023-04-26T05:56:54;100614.16;;;14.55;66.40
46690;BME280;32423;45.398;10.874;2023-04-26T05:59:46;100612.31;;;14.60;67.25
46690;BME280;32423;45.398;10.874;2023-04-26T06:02:38;100620.63;;;14.63;67.25
46690;BME280;32423;45.398;10.874;2023-04-26T06:05:34;100616.41;;;14.66;68.43
46690;BME280;32423;45.398;10.874;2023-04-26T06:08:26;100623.38;;;14.14;60.16
46690;BME280;32423;45.398;10.874;2023-04-26T06:11:18;100624.72;;;14.33;57.19
46690;BME280;32423;45.398;10.874;2023-04-26T06:14:10;100628.50;;;14.16;58.56
46690;BME280;32423;45.398;10.874;2023-04-26T06:17:02;100627.94;;;14.35;58.79
46690;BME280;32423;45.398;10.874;2023-04-26T06:19:54;100622.78;;;14.33;56.72
46690;BME280;32423;45.398;10.874;2023-04-26T06:22:46;100632.16;;;14.32;56.46
46690;BME280;32423;45.398;10.874;2023-04-26T06:25:38;100632.38;;;14.76;56.51
46690;BME280;32423;45.398;10.874;2023-04-26T06:28:33;100639.06;;;14.90;56.38
46690;BME280;32423;45.398;10.874;2023-04-26T06:31:25;100636.25;;;15.43;54.31
46690;BME280;32423;45.398;10.874;2023-04-26T06:34:17;100635.13;;;15.44;53.58
46690;BME280;32423;45.398;10.874;2023-04-26T06:37:09;100637.94;;;15.47;54.52
46690;BME280;32423;45.398;10.874;2023-04-26T06:40:02;100648.41;;;15.29;55.71
46690;BME280;32423;45.398;10.874;2023-04-26T06:42:54;100646.28;;;16.41;54.97
46690;BME280;32423;45.398;10.874;2023-04-26T06:45:55;100650.00;;;16.49;55.04
46690;BME280;32423;45.398;10.874;2023-04-26T06:48:47;100649.56;;;16.62;53.43
46690;BME280;32423;45.398;10.874;2023-04-26T06:51:39;100653.34;;;16.58;53.03
46690;BME280;32423;45.398;10.874;2023-04-26T06:54:31;100659.53;;;16.86;51.89
46690;BME280;32423;45.398;10.874;2023-04-26T06:57:24;100651.75;;;16.73;50.76
46690;BME280;32423;45.398;10.874;2023-04-26T07:00:16;100663.84;;;16.87;52.04
46690;BME280;32423;45.398;10.874;2023-04-26T07:03:08;100655.13;;;17.01;51.35
46690;BME280;32423;45.398;10.874;2023-04-26T07:06:00;100660.41;;;17.09;49.12
46690;BME280;32423;45.398;10.874;2023-04-26T07:08:52;100666.72;;;17.29;50.87
46690;BME280;32423;45.398;10.874;2023-04-26T07:11:44;100669.75;;;17.43;50.69
46690;BME280;32423;45.398;10.874;2023-04-26T07:14:33;100661.19;;;17.48;47.87
46690;BME280;32423;45.398;10.874;2023-04-26T07:17:26;100671.72;;;17.62;47.29
46690;BME280;32423;45.398;10.874;2023-04-26T07:20:18;100666.34;;;17.69;47.68
46690;BME280;32423;45.398;10.874;2023-04-26T07:23:11;100667.50;;;17.30;43.76
46690;BME280;32423;45.398;10.874;2023-04-26T07:26:04;100667.63;;;16.98;45.34
46690;BME280;32423;45.398;10.874;2023-04-26T07:28:56;100658.63;;;17.36;45.29
46690;BME280;32423;45.398;10.874;2023-04-26T07:31:49;100659.25;;;17.30;40.60
46690;BME280;32423;45.398;10.874;2023-04-26T07:34:41;100663.75;;;17.19;41.03
46690;BME280;32423;45.398;10.874;2023-04-26T07:37:33;100661.72;;;17.35;42.15
46690;BME280;32423;45.398;10.874;2023-04-26T07:40:25;100661.94;;;17.45;41.20
46690;BME280;32423;45.398;10.874;2023-04-26T07:43:17;100668.81;;;17.36;41.35
46690;BME280;32423;45.398;10.874;2023-04-26T07:46:07;100666.63;;;17.45;40.84
46690;BME280;32423;45.398;10.874;2023-04-26T07:48:59;100671.84;;;17.31;41.37
46690;BME280;32423;45.398;10.874;2023-04-26T07:51:51;100679.81;;;17.36;42.71
46690;BME280;32423;45.398;10.874;2023-04-26T07:54:41;100677.34;;;17.31;41.69
46690;BME280;32423;45.398;10.874;2023-04-26T07:57:35;100672.16;;;17.26;40.39
46690;BME280;32423;45.398;10.874;2023-04-26T08:00:28;100678.66;;;17.56;41.28
46690;BME280;32423;45.398;10.874;2023-04-26T08:03:17;100676.78;;;17.60;41.77
46690;BME280;32423;45.398;10.874;2023-04-26T08:06:09;100684.16;;;17.56;41.71
46690;BME280;32423;45.398;10.874;2023-04-26T08:09:01;100674.84;;;17.61;42.22
46690;BME280;32423;45.398;10.874;2023-04-26T08:11:53;100671.50;;;17.93;43.37
46690;BME280;32423;45.398;10.874;2023-04-26T08:14:45;100675.38;;;18.12;41.14
46690;BME280;32423;45.398;10.874;2023-04-26T08:17:37;100672.94;;;18.07;40.36
46690;BME280;32423;45.398;10.874;2023-04-26T08:20:29;100684.16;;;17.75;40.71
46690;BME280;32423;45.398;10.874;2023-04-26T08:23:19;100684.13;;;17.94;40.96
46690;BME280;32423;45.398;10.874;2023-04-26T08:26:11;100682.28;;;18.25;40.47
46690;BME280;32423;45.398;10.874;2023-04-26T08:29:03;100687.47;;;18.30;40.29
46690;BME280;32423;45.398;10.874;2023-04-26T08:31:55;100687.31;;;18.42;40.37
46690;BME280;32423;45.398;10.874;2023-04-26T08:34:47;100685.41;;;18.46;40.69
46690;BME280;32423;45.398;10.874;2023-04-26T08:37:39;100686.25;;;18.50;42.39
46690;BME280;32423;45.398;10.874;2023-04-26T08:40:31;100683.50;;;18.50;41.62
46690;BME280;32423;45.398;10.874;2023-04-26T08:43:23;100686.69;;;18.52;41.63
46690;BME280;32423;45.398;10.874;2023-04-26T08:46:15;100697.78;;;18.56;40.68
46690;BME280;32423;45.398;10.874;2023-04-26T08:49:21;100690.84;;;18.65;40.02
46690;BME280;32423;45.398;10.874;2023-04-26T08:52:15;100689.06;;;18.76;40.33
46690;BME280;32423;45.398;10.874;2023-04-26T08:55:10;100685.50;;;18.76;40.22
46690;BME280;32423;45.398;10.874;2023-04-26T08:58:04;100695.88;;;18.86;41.58
46690;BME280;32423;45.398;10.874;2023-04-26T09:00:56;100696.69;;;18.87;40.91
46690;BME280;32423;45.398;10.874;2023-04-26T09:03:49;100691.47;;;18.82;39.95
46690;BME280;32423;45.398;10.874;2023-04-26T09:06:38;100697.53;;;18.91;40.33
46690;BME280;32423;45.398;10.874;2023-04-26T09:09:33;100701.09;;;19.21;41.62
46690;BME280;32423;45.398;10.874;2023-04-26T09:12:25;100703.38;;;19.15;40.68
46690;BME280;32423;45.398;10.874;2023-04-26T09:15:17;100705.22;;;19.34;41.98
46690;BME280;32423;45.398;10.874;2023-04-26T09:18:17;100698.47;;;19.32;41.93
46690;BME280;32423;45.398;10.874;2023-04-26T09:21:09;100703.09;;;19.50;41.31
46690;BME280;32423;45.398;10.874;2023-04-26T09:23:59;100704.75;;;19.58;41.31
46690;BME280;32423;45.398;10.874;2023-04-26T09:26:59;100708.00;;;19.68;41.06
46690;BME280;32423;45.398;10.874;2023-04-26T09:33:01;100698.66;;;19.76;42.63
46690;BME280;32423;45.398;10.874;2023-04-26T09:35:54;100700.66;;;19.79;42.10
46690;BME280;32423;45.398;10.874;2023-04-26T09:38:44;100703.50;;;19.86;39.85
46690;BME280;32423;45.398;10.874;2023-04-26T09:41:45;100700.00;;;19.92;41.24
46690;BME280;32423;45.398;10.874;2023-04-26T09:44:37;100698.03;;;19.93;43.07
46690;BME280;32423;45.398;10.874;2023-04-26T09:47:29;100696.88;;;19.94;42.67
46690;BME280;32423;45.398;10.874;2023-04-26T09:50:28;100695.69;;;19.95;41.69
46690;BME280;32423;45.398;10.874;2023-04-26T09:56:24;100700.06;;;19.96;41.14
46690;BME280;32423;45.398;10.874;2023-04-26T09:59:16;100692.16;;;19.98;41.19
46690;BME280;32423;45.398;10.874;2023-04-26T10:02:12;100693.75;;;19.99;41.61
46690;BME280;32423;45.398;10.874;2023-04-26T10:05:05;100687.81;;;19.97;42.20
46690;BME280;32423;45.398;10.874;2023-04-26T10:07:57;100696.94;;;20.01;42.02
46690;BME280;32423;45.398;10.874;2023-04-26T10:10:49;100691.81;;;19.99;41.09
46690;BME280;32423;45.398;10.874;2023-04-26T10:13:41;100691.84;;;20.06;41.41
46690;BME280;32423;45.398;10.874;2023-04-26T10:16:33;100689.88;;;20.07;41.19
46690;BME280;32423;45.398;10.874;2023-04-26T10:19:26;100692.25;;;20.05;40.44
46690;BME280;32423;45.398;10.874;2023-04-26T10:22:22;100686.34;;;20.06;38.78
46690;BME280;32423;45.398;10.874;2023-04-26T10:25:14;100685.59;;;20.10;40.19
46690;BME280;32423;45.398;10.874;2023-04-26T10:28:06;100679.69;;;20.11;40.51
46690;BME280;32423;45.398;10.874;2023-04-26T10:30:58;100686.78;;;20.12;41.13
46690;BME280;32423;45.398;10.874;2023-04-26T10:34:16;100681.69;;;20.14;39.86
46690;BME280;32423;45.398;10.874;2023-04-26T10:37:10;100677.75;;;20.15;40.15
46690;BME280;32423;45.398;10.874;2023-04-26T10:46:31;100661.00;;;20.38;40.85
46690;BME280;32423;45.398;10.874;2023-04-26T10:49:18;100661.34;;;20.33;41.60
46690;BME280;32423;45.398;10.874;2023-04-26T10:52:13;100662.97;;;20.37;42.04
46690;BME280;32423;45.398;10.874;2023-04-26T10:55:08;100651.56;;;20.42;42.14
46690;BME280;32423;45.398;10.874;2023-04-26T10:57:58;100668.97;;;20.46;41.56
46690;BME280;32423;45.398;10.874;2023-04-26T11:04:09;100656.00;;;20.54;40.96
46690;BME280;32423;45.398;10.874;2023-04-26T11:07:00;100647.00;;;20.68;40.78
46690;BME280;32423;45.398;10.874;2023-04-26T11:09:53;100643.41;;;20.60;38.38
46690;BME280;32423;45.398;10.874;2023-04-26T11:12:44;100654.63;;;20.88;38.36
46690;BME280;32423;45.398;10.874;2023-04-26T11:15:48;100636.69;;;21.23;40.38
46690;BME280;32423;45.398;10.874;2023-04-26T11:18:46;100633.66;;;21.63;39.23
46690;BME280;32423;45.398;10.874;2023-04-26T11:21:38;100636.84;;;21.90;39.27
46690;BME280;32423;45.398;10.874;2023-04-26T11:24:34;100632.16;;;22.19;37.70
46690;BME280;32423;45.398;10.874;2023-04-26T11:27:32;100637.66;;;22.47;36.26
46690;BME280;32423;45.398;10.874;2023-04-26T11:30:24;100637.75;;;24.18;36.20
46690;BME280;32423;45.398;10.874;2023-04-26T11:33:19;100638.34;;;31.73;24.06
46690;BME280;32423;45.398;10.874;2023-04-26T11:36:11;100646.19;;;34.68;20.26
46690;BME280;32423;45.398;10.874;2023-04-26T11:39:03;100645.16;;;34.57;20.24
46690;BME280;32423;45.398;10.874;2023-04-26T11:42:03;100651.75;;;33.64;21.58
46690;BME280;32423;45.398;10.874;2023-04-26T11:44:55;100647.59;;;33.41;20.26
46690;BME280;32423;45.398;10.874;2023-04-26T11:47:47;100643.84;;;32.35;22.75
46690;BME280;32423;45.398;10.874;2023-04-26T11:50:40;100634.16;;;31.56;23.04
46690;BME280;32423;45.398;10.874;2023-04-26T11:53:38;100629.50;;;29.94;24.39
46690;BME280;32423;45.398;10.874;2023-04-26T11:56:30;100627.13;;;27.90;28.90
46690;BME280;32423;45.398;10.874;2023-04-26T11:59:25;100617.94;;;27.38;27.88
46690;BME280;32423;45.398;10.874;2023-04-26T12:02:16;100618.28;;;26.37;29.30
46690;BME280;32423;45.398;10.874;2023-04-26T12:05:08;100613.81;;;26.44;29.81
46690;BME280;32423;45.398;10.874;2023-04-26T12:08:01;100617.47;;;25.33;30.47
46690;BME280;32423;45.398;10.874;2023-04-26T12:10:53;100607.63;;;25.55;28.87
46690;BME280;32423;45.398;10.874;2023-04-26T12:13:45;100608.31;;;25.02;31.64
46690;BME280;32423;45.398;10.874;2023-04-26T12:16:36;100601.88;;;25.70;30.33
46690;BME280;32423;45.398;10.874;2023-04-26T12:19:30;100603.81;;;25.12;31.09
46690;BME280;32423;45.398;10.874;2023-04-26T12:22:23;100614.09;;;24.81;32.04
46690;BME280;32423;45.398;10.874;2023-04-26T12:25:16;100607.69;;;24.50;33.59
46690;BME280;32423;45.398;10.874;2023-04-26T12:28:12;100598.84;;;24.18;34.36
46690;BME280;32423;45.398;10.874;2023-04-26T12:31:04;100603.78;;;23.96;32.85
46690;BME280;32423;45.398;10.874;2023-04-26T12:33:56;100595.03;;;24.80;33.06
46690;BME280;32423;45.398;10.874;2023-04-26T12:36:45;100597.19;;;24.24;33.21
46690;BME280;32423;45.398;10.874;2023-04-26T12:39:37;100594.22;;;24.83;31.97
46690;BME280;32423;45.398;10.874;2023-04-26T12:42:29;100601.31;;;24.91;30.69
46690;BME280;32423;45.398;10.874;2023-04-26T12:45:21;100591.28;;;24.59;29.46
46690;BME280;32423;45.398;10.874;2023-04-26T12:48:11;100598.16;;;24.89;29.30
46690;BME280;32423;45.398;10.874;2023-04-26T12:51:03;100598.72;;;24.73;30.79
46690;BME280;32423;45.398;10.874;2023-04-26T12:53:55;100594.16;;;24.90;29.63
46690;BME280;32423;45.398;10.874;2023-04-26T12:56:47;100600.25;;;24.78;27.34
46690;BME280;32423;45.398;10.874;2023-04-26T12:59:39;100597.28;;;24.17;28.05
46690;BME280;32423;45.398;10.874;2023-04-26T13:02:31;100584.88;;;24.66;27.77
46690;BME280;32423;45.398;10.874;2023-04-26T13:05:23;100587.06;;;24.00;31.08
46690;BME280;32423;45.398;10.874;2023-04-26T13:08:15;100582.19;;;22.79;33.33
46690;BME280;32423;45.398;10.874;2023-04-26T13:11:07;100587.31;;;22.81;33.27
46690;BME280;32423;45.398;10.874;2023-04-26T13:13:59;100581.81;;;23.61;30.32
46690;BME280;32423;45.398;10.874;2023-04-26T13:16:51;100582.94;;;23.70;32.55
46690;BME280;32423;45.398;10.874;2023-04-26T13:19:43;100571.91;;;24.52;31.36
46690;BME280;32423;45.398;10.874;2023-04-26T13:22:35;100570.50;;;24.34;31.40
46690;BME280;32423;45.398;10.874;2023-04-26T13:25:27;100565.84;;;24.23;29.40
46690;BME280;32423;45.398;10.874;2023-04-26T13:28:19;100571.94;;;23.56;28.13
46690;BME280;32423;45.398;10.874;2023-04-26T13:31:11;100568.13;;;23.22;28.91
46690;BME280;32423;45.398;10.874;2023-04-26T13:34:04;100564.22;;;23.09;31.11
46690;BME280;32423;45.398;10.874;2023-04-26T13:36:56;100561.06;;;23.10;31.98
46690;BME280;32423;45.398;10.874;2023-04-26T13:39:48;100564.69;;;23.00;32.92
46690;BME280;32423;45.398;10.874;2023-04-26T13:42:40;100559.50;;;23.06;30.52
46690;BME280;32423;45.398;10.874;2023-04-26T13:45:31;100556.09;;;22.52;31.29
46690;BME280;32423;45.398;10.874;2023-04-26T13:48:23;100551.78;;;22.44;27.50
46690;BME280;32423;45.398;10.874;2023-04-26T13:51:15;100552.16;;;22.42;29.72
46690;BME280;32423;45.398;10.874;2023-04-26T13:54:07;100555.34;;;22.34;27.79
46690;BME280;32423;45.398;10.874;2023-04-26T13:57:00;100552.16;;;22.35;25.58
46690;BME280;32423;45.398;10.874;2023-04-26T13:59:51;100558.09;;;22.48;27.62
46690;BME280;32423;45.398;10.874;2023-04-26T14:02:43;100554.50;;;22.51;27.65
46690;BME280;32423;45.398;10.874;2023-04-26T14:05:35;100546.56;;;22.56;26.20
46690;BME280;32423;45.398;10.874;2023-04-26T14:08:27;100542.66;;;22.43;26.60
46690;BME280;32423;45.398;10.874;2023-04-26T14:11:19;100535.56;;;22.21;24.19
46690;BME280;32423;45.398;10.874;2023-04-26T14:14:11;100534.00;;;22.06;25.18
46690;BME280;32423;45.398;10.874;2023-04-26T14:17:00;100545.50;;;22.04;25.84
46690;BME280;32423;45.398;10.874;2023-04-26T14:19:53;100554.59;;;22.01;27.87
46690;BME280;32423;45.398;10.874;2023-04-26T14:22:44;100549.03;;;21.94;27.54
46690;BME280;32423;45.398;10.874;2023-04-26T14:25:37;100543.50;;;21.87;26.51
46690;BME280;32423;45.398;10.874;2023-04-26T14:28:28;100543.09;;;21.92;26.71
46690;BME280;32423;45.398;10.874;2023-04-26T14:31:20;100541.91;;;21.68;25.62
46690;BME280;32423;45.398;10.874;2023-04-26T14:34:10;100539.91;;;21.55;26.85
46690;BME280;32423;45.398;10.874;2023-04-26T14:37:02;100536.38;;;21.58;26.19
46690;BME280;32423;45.398;10.874;2023-04-26T14:39:54;100537.13;;;21.55;26.05
46690;BME280;32423;45.398;10.874;2023-04-26T14:42:46;100528.44;;;21.56;26.35
46690;BME280;32423;45.398;10.874;2023-04-26T14:45:40;100518.19;;;21.53;26.20
46690;BME280;32423;45.398;10.874;2023-04-26T14:48:30;100518.19;;;21.43;26.05
46690;BME280;32423;45.398;10.874;2023-04-26T14:51:22;100519.72;;;21.44;25.93
46690;BME280;32423;45.398;10.874;2023-04-26T14:54:14;100513.38;;;21.29;25.30
46690;BME280;32423;45.398;10.874;2023-04-26T14:57:06;100508.66;;;21.44;26.13
46690;BME280;32423;45.398;10.874;2023-04-26T14:59:58;100465.97;;;21.20;26.66
46690;BME280;32423;45.398;10.874;2023-04-26T15:02:54;100507.06;;;21.39;26.33
46690;BME280;32423;45.398;10.874;2023-04-26T15:05:46;100502.75;;;21.38;26.24